Tiempo atmosférico en la estación meteorológica de Arganda Del Rey, Madrid (533 m.)



Fecha
DESCASC
Temp. máxima en grados centígrados (hora)
DESCASC
Temp. mínima en grados centígrados (hora)
DESCASC
Temp. media en grados centígrados
DESCASC
Racha de viento máxima en m/sg (hora)
DESCASC
Velocidad máxima media en intervalos de 10 minutos(hora)
DESCASC
Precipitaciones diarias en mm
DESCASC
Precipitaciones de 00:00 a 06:00 en mm
DESCASC
Precipitaciones de 06:00 a 12:00 en mm
DESCASC
Precipitaciones de 12:00 a 18:00 en mm
DESCASC
Precipitaciones de 18:00 a 24:00 en mm
DESCASC
15-08-2019 37.5 (18:30) 16.2 (05:40) 26.9 9.17 (23:59) 5.83 (23:59) 0 0 0 0 0
14-08-2019 34.7 (18:40) 14.4 (00:00) 24.6 6.67 (16:50) 3.33 (17:20) 0 0 0 0 0
13-08-2019 31.7 (19:00) 16.3 (00:00) 24 9.17 (05:30) 5.28 (00:20) 0 0 0 0 0
12-08-2019 30.1 (16:30) 12.7 (00:00) 21.4 11.11 (11:20) 6.11 (11:30) 0 0 0 0 0
11-08-2019 31 (17:00) 17.4 (00:00) 24.2 12.5 (17:40) 8.89 (16:10) 0 0 0 0 0
10-08-2019 33.1 (18:00) 17.3 (00:00) 25.2 8.61 (16:10) 5.56 (15:20) 0 0 0 0 0
09-08-2019 33.2 (16:50) 21.2 (00:00) 27.2 14.17 (17:00) 8.89 (17:30) 0 0 0 0 0
08-08-2019 35.6 (18:30) 17.5 (00:00) 26.5 10.83 (18:30) 7.22 (18:30) 0 0 0 0 0
07-08-2019 29.2 (18:00) 22.7 (00:00) 26 11.11 (15:20) 7.5 (15:20) 0 0 0 0 0
06-08-2019 37.1 (17:10) 16.8 (00:00) 26.9 9.17 (19:30) 6.39 (13:10) 0 0 0 0 0
05-08-2019 37.5 (19:10) 17.5 (00:00) 27.5 9.72 (16:50) 5.56 (16:10) 0 0 0 0 0
04-08-2019 37.2 (17:20) 18 (00:00) 27.6 9.44 (16:10) 5.83 (18:20) 0 0 0 0 0
03-08-2019 37.6 (18:00) 18.5 (00:00) 28 15.83 (16:10) 5.83 (16:20) 0 0 0 0 0
02-08-2019 37 (19:20) 19 (00:00) 28 8.61 (16:30) 4.44 (17:20) 0 0 0 0 0
01-08-2019 35.6 (18:30) 21.4 (00:00) 28.5 12.5 (00:10) 7.5 (00:10) 0 0 0 0 0
31-07-2019 36.1 (18:40) 18 (00:00) 27 12.78 (23:59) 8.06 (23:00) 0 0 0 0 0
30-07-2019 33.4 (17:00) 14.5 (00:00) 24 10 (23:50) 6.39 (23:50) 0 0 0 0 0
29-07-2019 34.2 (17:00) 15.5 (00:00) 24.9 11.67 (16:20) 7.78 (18:10) 0 0 0 0 0
28-07-2019 31.3 (18:50) 14.9 (00:00) 23.1 9.44 (17:20) 4.72 (18:10) 0 0 0 0 0
27-07-2019 30 (18:50) 18.7 (00:00) 24.4 11.94 (15:00) 7.22 (14:30) 0 0 0 0 0
26-07-2019 32.6 (17:30) 23.3 (00:00) 27.9 12.78 (15:00) 7.78 (16:40) 0 0 0 0 0
25-07-2019 37.7 (16:40) 23.3 (00:00) 30.5 10.28 (01:00) 6.94 (16:00) 0 0 0 0 0
24-07-2019 38.9 (17:00) 19.6 (00:00) 29.3 13.89 (00:40) 6.11 (23:10) 2 2 0 0 0
23-07-2019 40 (16:50) 23.7 (00:00) 31.9 17.78 (19:50) 10.83 (20:00) 0.6 0.4 0 0 0.2
22-07-2019 39.4 (16:30) 22.2 (00:00) 30.8 15.56 (23:59) 9.17 (23:40) 0 0 0 0 0
21-07-2019 40.2 (18:40) 23.6 (00:00) 31.9 13.61 (01:20) 9.17 (01:20) 0 0 0 0 0
20-07-2019 39 (18:40) 22.9 (00:00) 30.9 11.11 (23:40) 7.5 (23:59) 0 0 0 0 0
19-07-2019 38 (16:50) 22.5 (00:00) 30.3 9.72 (23:30) 6.11 (23:40) 0 0 0 0 0

Gráficas

Temp. máximas Temp. mínimas Temp. medias Precipitaciones Rachas de viento máximas Velocidades máximas media en intervalos de 10 minutos

Datos horarios

Fecha y hora oficial Temperatura (ºC) Velocidad del viento (km/h) Dirección del viento Racha (km/h) Dirección de racha Precipitación (mm) Presión (hPa) Tendencia (hPa) Humedad (%)
2019-08-17 23:00:00 27.7 0 Calma 6 Sur 0 -- -- 28
2019-08-17 22:00:00 30.7 5 Sur 15 Oeste 0 -- -- 24
2019-08-17 21:00:00 34.3 14 Oeste 28 Oeste 0 -- -- 21
2019-08-17 20:00:00 36.6 17 Oeste 31 Sudoeste 0 -- -- 19
2019-08-17 19:00:00 37.7 16 Oeste 34 Sudoeste 0 -- -- 18
2019-08-17 18:00:00 38.1 19 Oeste 35 Sudoeste 0 -- -- 18
2019-08-17 17:00:00 38.2 22 Oeste 38 Oeste 0 -- -- 18
2019-08-17 16:00:00 37.6 19 Oeste 37 Sudoeste 0 -- -- 19
2019-08-17 15:00:00 37.2 22 Sudoeste 38 Sudoeste 0 -- -- 19
2019-08-17 14:00:00 35.7 10 Sudoeste 27 Sur 0 -- -- 22
2019-08-17 13:00:00 33.7 9 Oeste 18 Sudoeste 0 -- -- 23
2019-08-17 12:00:00 31 7 Oeste 13 Oeste 0 -- -- 29
2019-08-17 11:00:00 27.8 4 Oeste 10 Sudoeste 0 -- -- 35
2019-08-17 10:00:00 26 0 Calma 9 Este 0 -- -- 40
2019-08-17 09:00:00 22.9 3 Nordeste 7 Este 0 -- -- 44
2019-08-17 08:00:00 18.5 0 Calma 9 Nordeste 0 -- -- 49
2019-08-17 07:00:00 19 5 Nordeste 9 Este 0 -- -- 46
2019-08-17 06:00:00 18.7 3 Nordeste 5 Nordeste 0 -- -- 47
2019-08-17 05:00:00 20 0 Calma 8 Este 0 -- -- 44
2019-08-17 04:00:00 22 3 Nordeste 10 Nordeste 0 -- -- 39
2019-08-17 03:00:00 22.2 5 Nordeste 9 Nordeste 0 -- -- 39
2019-08-17 02:00:00 23.4 4 Nordeste 8 Norte 0 -- -- 41
2019-08-17 01:00:00 25.3 3 Oeste 5 Noroeste 0 -- -- 38
2019-08-17 00:00:00 27.2 0 Calma 5 Sur 0 -- -- 32
2019-08-16 23:00:00 28.6 0 Calma 6 Sur 0 -- -- 29
2019-08-16 22:00:00 30.7 5 Sur 10 Sudoeste 0 -- -- 25
2019-08-16 21:00:00 34.1 10 Oeste 24 Oeste 0 -- -- 22
2019-08-16 20:00:00 36.3 16 Oeste 28 Oeste 0 -- -- 19
2019-08-16 19:00:00 37.2 16 Sudoeste 30 Oeste 0 -- -- 17
2019-08-16 18:00:00 37.2 13 Sudoeste 32 Sur 0 -- -- 20
2019-08-16 17:00:00 37 13 Sur 33 Sudoeste 0 -- -- 21
2019-08-16 16:00:00 36.3 10 Sudoeste 27 Sur 0 -- -- 22
2019-08-16 15:00:00 34.9 12 Oeste 26 Oeste 0 -- -- 25
2019-08-16 14:00:00 34 6 Este 18 Sudeste 0 -- -- 29
2019-08-16 13:00:00 32.3 7 Sudoeste 17 Sudeste 0 -- -- 33
2019-08-16 12:00:00 30.3 4 Sur 14 Sudeste 0 -- -- 38
2019-08-16 11:00:00 28.1 5 Nordeste 10 Este 0 -- -- 43
2019-08-16 10:00:00 25.5 3 Norte 12 Este 0 -- -- 47
2019-08-16 09:00:00 23 6 Este 10 Este 0 -- -- 51
2019-08-16 08:00:00 20.5 5 Nordeste 9 Este 0 -- -- 55
2019-08-16 07:00:00 20.6 3 Nordeste 9 Nordeste 0 -- -- 54
2019-08-16 06:00:00 22 4 Nordeste 11 Nordeste 0 -- -- 50
2019-08-16 05:00:00 22.5 4 Norte 14 Nordeste 0 -- -- 48
2019-08-16 04:00:00 23.3 5 Nordeste 20 Norte 0 -- -- 47
2019-08-16 03:00:00 24 9 Nordeste 28 Norte 0 -- -- 45
2019-08-16 02:00:00 25.3 16 Nordeste 32 Norte 0 -- -- 43
2019-08-16 01:00:00 26.8 18 Norte 34 Norte 0 -- -- 40
2019-08-16 00:00:00 29.4 21 Norte 33 Norte 0 -- -- 32
2019-08-15 23:00:00 30.7 14 Norte 28 Norte 0 -- -- 28
2019-08-15 22:00:00 29.8 4 Oeste 10 Sudoeste 0 -- -- 32
2019-08-15 21:00:00 33.5 8 Sudoeste 13 Sudoeste 0 -- -- 26
2019-08-15 20:00:00 35.4 4 Sudoeste 27 Sudoeste 0 -- -- 24
2019-08-15 19:00:00 36.5 13 Sudoeste 21 Sudoeste 0 -- -- 23
2019-08-15 18:00:00 36.7 5 Norte 21 Oeste 0 -- -- 23
2019-08-15 17:00:00 36.1 8 Sudoeste 23 Sudoeste 0 -- -- 22
2019-08-15 16:00:00 35.6 9 Sudoeste 24 Oeste 0 -- -- 22
2019-08-15 15:00:00 35.2 5 Noroeste 19 Oeste 0 -- -- 22
2019-08-15 14:00:00 33.9 9 Oeste 17 Sudoeste 0 -- -- 23
2019-08-15 13:00:00 32.6 4 Oeste 12 Este 0 -- -- 22
2019-08-15 12:00:00 30.9 5 Este 10 Este 0 -- -- 24
2019-08-15 11:00:00 27.7 4 Nordeste 10 Este 0 -- -- 28
2019-08-15 10:00:00 24.2 6 Nordeste 12 Este 0 -- -- 33
2019-08-15 09:00:00 21.2 3 Sudeste 7 Este 0 -- -- 40
2019-08-15 08:00:00 17.1 3 Norte 10 Este 0 -- -- 43
2019-08-15 07:00:00 17.5 5 Nordeste 11 Nordeste 0 -- -- 42
2019-08-15 06:00:00 16.4 4 Nordeste 6 Nordeste 0 -- -- 46
2019-08-15 05:00:00 17.1 2 Norte 4 Nordeste 0 -- -- 49
2019-08-15 04:00:00 17.4 0 Calma 6 Nordeste 0 -- -- 42
2019-08-15 03:00:00 19.3 2 Nordeste 8 Nordeste 0 -- -- 40
2019-08-15 02:00:00 20 0 Calma 9 Nordeste 0 -- -- 37
2019-08-15 01:00:00 21 2 Nordeste 7 Este 0 -- -- 34
2019-08-15 00:00:00 22.7 3 Nordeste 10 Noroeste 0 -- -- 37
2019-08-14 23:00:00 25.1 0 Calma 4 Oeste 0 -- -- 33
2019-08-14 22:00:00 27.9 3 Oeste 7 Sudoeste 0 -- -- 28
2019-08-14 21:00:00 31.6 6 Sudoeste 10 Sudoeste 0 -- -- 24
2019-08-14 20:00:00 34 7 Sudoeste 19 Sur 0 -- -- 19
2019-08-14 19:00:00 34.4 6 Sur 15 Sur 0 -- -- 19
2019-08-14 18:00:00 34.2 8 Sudoeste 23 Sudoeste 0 -- -- 19
2019-08-14 17:00:00 34.1 7 Sudoeste 24 Oeste 0 -- -- 20
2019-08-14 16:00:00 33.1 10 Sudoeste 20 Sudoeste 0 -- -- 21
2019-08-14 15:00:00 32.8 11 Norte 21 Sudoeste 0 -- -- 23
2019-08-14 14:00:00 30.8 7 Sudoeste 17 Sudoeste 0 -- -- 25
2019-08-14 13:00:00 28.7 7 Sudoeste 14 Oeste 0 -- -- 31
2019-08-14 12:00:00 26.8 6 Norte 12 Norte 0 -- -- 42
2019-08-14 11:00:00 24.7 4 Sur 9 Noroeste 0 -- -- 44
2019-08-14 10:00:00 21.3 6 Nordeste 15 Nordeste 0 -- -- 38
2019-08-14 09:00:00 18.9 4 Nordeste 11 Norte 0 -- -- 44
2019-08-14 08:00:00 15.8 5 Este 9 Nordeste 0 -- -- 50
2019-08-14 07:00:00 15.1 4 Nordeste 7 Nordeste 0 -- -- 50
2019-08-14 06:00:00 15.8 4 Sudeste 8 Nordeste 0 -- -- 43
2019-08-14 05:00:00 18.1 2 Nordeste 12 Nordeste 0 -- -- 41
2019-08-14 04:00:00 17.9 4 Norte 7 Norte 0 -- -- 36
2019-08-14 03:00:00 19.5 3 Nordeste 11 Nordeste 0 -- -- 30
2019-08-14 02:00:00 20.6 0 Calma 8 Norte 0 -- -- 27
2019-08-14 01:00:00 22.8 6 Nordeste 19 Nordeste 0 -- -- 25
2019-08-14 00:00:00 23.4 7 Nordeste 13 Nordeste 0 -- -- 26
2019-08-13 23:00:00 24.5 10 Nordeste 20 Nordeste 0 -- -- 24
2019-08-13 22:00:00 25.3 0 Calma 6 Oeste 0 -- -- 29
2019-08-13 21:00:00 29.4 4 Sudoeste 15 Sudeste 0 -- -- 23
2019-08-13 20:00:00 30.6 7 Este 13 Sur 0 -- -- 22
2019-08-13 19:00:00 31.7 3 Sur 19 Oeste 0 -- -- 22
2019-08-13 18:00:00 30.7 9 Sudoeste 22 Sudoeste 0 -- -- 23
2019-08-13 17:00:00 31 7 Sudoeste 21 Noroeste 0 -- -- 22
2019-08-13 16:00:00 30.1 6 Norte 21 Oeste 0 -- -- 26
2019-08-13 15:00:00 28.7 5 Noroeste 18 Noroeste 0 -- -- 29
2019-08-13 14:00:00 28 5 Noroeste 15 Nordeste 0 -- -- 37
2019-08-13 13:00:00 25.4 10 Oeste 17 Oeste 0 -- -- 42
2019-08-13 12:00:00 24.4 6 Nordeste 16 Norte 0 -- -- 39
2019-08-13 11:00:00 21.6 10 Norte 17 Norte 0 -- -- 42
2019-08-13 10:00:00 19.6 7 Nordeste 21 Nordeste 0 -- -- 45
2019-08-13 09:00:00 16.9 9 Nordeste 23 Norte 0 -- -- 50
2019-08-13 08:00:00 16.3 8 Nordeste 23 Norte 0 -- -- 52
2019-08-13 07:00:00 16.8 12 Norte 28 Norte 0 -- -- 51
2019-08-13 06:00:00 17.3 18 Nordeste 33 Norte 0 -- -- 50
2019-08-13 05:00:00 17.7 16 Nordeste 32 Norte 0 -- -- 49
2019-08-13 04:00:00 18 15 Nordeste 31 Nordeste 0 -- -- 47
2019-08-13 03:00:00 19 15 Nordeste 33 Nordeste 0 -- -- 44
2019-08-13 02:00:00 19.9 15 Nordeste 27 Nordeste 0 -- -- 41
2019-08-13 01:00:00 20.7 16 Nordeste 31 Norte 0 -- -- 37
2019-08-13 00:00:00 22.3 17 Norte 31 Norte 0 -- -- 32
2019-08-12 23:00:00 23.4 14 Norte 31 Norte 0 -- -- 27
2019-08-12 22:00:00 24.5 17 Norte 32 Norte 0 -- -- 24
2019-08-12 21:00:00 27.1 12 Norte 22 Norte 0 -- -- 22
2019-08-12 20:00:00 28.3 9 Nordeste 23 Este 0 -- -- 20
2019-08-12 19:00:00 29.1 6 Este 23 Norte 0 -- -- 20
2019-08-12 18:00:00 29.3 12 Nordeste 27 Norte 0 -- -- 19
2019-08-12 17:00:00 28.8 14 Nordeste 28 Norte 0 -- -- 21
2019-08-12 16:00:00 29 10 Norte 30 Norte 0 -- -- 21
2019-08-12 15:00:00 28.4 9 Norte 26 Norte 0 -- -- 23
2019-08-12 14:00:00 27.8 18 Norte 28 Norte 0 -- -- 24
2019-08-12 13:00:00 26.8 12 Norte 32 Noroeste 0 -- -- 25
2019-08-12 12:00:00 24 20 Norte 40 Norte 0 -- -- 26
2019-08-12 11:00:00 22.4 17 Norte 30 Norte 0 -- -- 37
2019-08-12 10:00:00 20.4 15 Nordeste 28 Norte 0 -- -- 46
2019-08-12 09:00:00 18.3 5 Nordeste 10 Nordeste 0 -- -- 50
2019-08-12 08:00:00 13.7 3 Sudeste 5 Este 0 -- -- 55
2019-08-12 07:00:00 12.7 3 Oeste 6 Noroeste 0 -- -- 53
2019-08-12 06:00:00 14 2 Sur 5 Sudoeste 0 -- -- 49
2019-08-12 05:00:00 15 0 Calma 10 Oeste 0 -- -- 47
2019-08-12 04:00:00 16.4 3 Nordeste 8 Nordeste 0 -- -- 41
2019-08-12 03:00:00 17.8 0 Calma 4 Sudoeste 0 -- -- 38
2019-08-12 02:00:00 19.5 0 Calma 11 Oeste 0 -- -- 34
2019-08-12 01:00:00 21.1 2 Nordeste 12 Oeste 0 -- -- 32
2019-08-12 00:00:00 22.7 3 Oeste 18 Oeste 0 -- -- 29
2019-08-11 23:00:00 24.2 11 Oeste 19 Oeste 0 -- -- 30
2019-08-11 22:00:00 25 8 Oeste 26 Oeste 0 -- -- 30
2019-08-11 21:00:00 26.7 15 Oeste 28 Oeste 0 -- -- 29
2019-08-11 20:00:00 28.3 21 Oeste 33 Oeste 0 -- -- 23
2019-08-11 19:00:00 30 22 Sudoeste 37 Oeste 0 -- -- 19
2019-08-11 18:00:00 30.7 24 Sudoeste 45 Oeste 0 -- -- 17
2019-08-11 17:00:00 31 23 Sudoeste 42 Sudoeste 0 -- -- 14
2019-08-11 16:00:00 30 30 Sudoeste 44 Oeste 0 -- -- 16
2019-08-11 15:00:00 29.3 27 Oeste 44 Oeste 0 -- -- 23
2019-08-11 14:00:00 29.7 23 Sudoeste 38 Sudoeste 0 -- -- 25
2019-08-11 13:00:00 28.7 21 Oeste 37 Oeste 0 -- -- 28
2019-08-11 12:00:00 27.5 14 Sudoeste 26 Sudoeste 0 -- -- 32
2019-08-11 11:00:00 25.5 9 Sudoeste 19 Sudoeste 0 -- -- 36
2019-08-11 10:00:00 22.8 7 Sudoeste 19 Sudoeste 0 -- -- 40
2019-08-11 09:00:00 20 13 Sudoeste 16 Sudoeste 0 -- -- 48
2019-08-11 08:00:00 19.3 4 Sudoeste 13 Sudoeste 0 -- -- 51
2019-08-11 07:00:00 18.7 8 Sudeste 15 Oeste 0 -- -- 47
2019-08-11 06:00:00 17.5 4 Sudeste 6 Sudoeste 0 -- -- 48
2019-08-11 05:00:00 18 2 Sudeste 6 Sur 0 -- -- 46
2019-08-11 04:00:00 19.1 2 Sudoeste 12 Sudoeste 0 -- -- 44
2019-08-11 03:00:00 20.6 6 Oeste 8 Oeste 0 -- -- 41
2019-08-11 02:00:00 22.1 3 Sudoeste 13 Oeste 0 -- -- 36
2019-08-11 01:00:00 23.3 4 Oeste 15 Oeste 0 -- -- 33
2019-08-11 00:00:00 24.3 7 Sur 9 Sur 0 -- -- 31
2019-08-10 23:00:00 25.7 2 Este 8 Sur 0 -- -- 30
2019-08-10 22:00:00 28.2 4 Sudoeste 19 Oeste 0 -- -- 26
2019-08-10 21:00:00 30.6 10 Oeste 20 Oeste 0 -- -- 26
2019-08-10 20:00:00 32.8 14 Oeste 19 Oeste 0 -- -- 27
2019-08-10 19:00:00 33.1 11 Oeste 26 Sudoeste 0 -- -- 26
2019-08-10 18:00:00 33.1 13 Sudoeste 24 Oeste 0 -- -- 27
2019-08-10 17:00:00 32.3 14 Sudoeste 31 Sudoeste 0 -- -- 26
2019-08-10 16:00:00 31 16 Sudoeste 30 Sudoeste 0 -- -- 29
2019-08-10 15:00:00 30.7 13 Sudoeste 27 Sur 0 -- -- 30
2019-08-10 14:00:00 29.3 13 Sudoeste 24 Sudoeste 0 -- -- 33
2019-08-10 13:00:00 27.8 10 Sudoeste 18 Sudoeste 0 -- -- 36
2019-08-10 12:00:00 26.2 6 Sudoeste 17 Oeste 0 -- -- 43
2019-08-10 11:00:00 24.1 6 Sur 14 Sur 0 -- -- 50
2019-08-10 10:00:00 21.4 8 Sur 15 Sudoeste 0 -- -- 61
2019-08-10 09:00:00 19.3 6 Sudoeste 10 Sudoeste 0 -- -- 70
2019-08-10 08:00:00 17.3 3 Sudoeste 8 Sudoeste 0 -- -- 73
2019-08-10 07:00:00 17.8 4 Sudoeste 9 Sudoeste 0 -- -- 71
2019-08-10 06:00:00 19.2 10 Sudoeste 17 Sudoeste 0 -- -- 68
2019-08-10 05:00:00 19.9 13 Sudoeste 17 Sudoeste 0 -- -- 67
2019-08-10 04:00:00 20.6 6 Sur 16 Sudoeste 0 -- -- 67
2019-08-10 03:00:00 21.1 12 Sudoeste 22 Sudoeste 0 -- -- 66
2019-08-10 02:00:00 21.9 13 Sudoeste 18 Sudoeste 0 -- -- 70
2019-08-10 01:00:00 22.9 11 Sur 17 Sudoeste 0 -- -- 66
2019-08-10 00:00:00 24.4 12 Sudoeste 19 Sudoeste 0 -- -- 61
2019-08-09 23:00:00 25.5 8 Sudoeste 26 Oeste 0 -- -- 59
2019-08-09 22:00:00 26.7 20 Oeste 40 Oeste 0 -- -- 57
2019-08-09 21:00:00 28.7 25 Oeste 40 Oeste 0 -- -- 52
2019-08-09 20:00:00 31 23 Oeste 41 Oeste 0 -- -- 43
2019-08-09 19:00:00 32.5 27 Sudoeste 41 Sudoeste 0 -- -- 38
2019-08-09 18:00:00 33 28 Oeste 48 Oeste 0 -- -- 38
2019-08-09 17:00:00 32.8 30 Sudoeste 51 Noroeste 0 -- -- 38
2019-08-09 16:00:00 32.7 31 Sudoeste 45 Oeste 0 -- -- 38
2019-08-09 15:00:00 31.6 24 Sudoeste 46 Sudoeste 0 -- -- 43
2019-08-09 14:00:00 30.2 26 Sudoeste 44 Sudoeste 0 -- -- 46
2019-08-09 13:00:00 30.1 23 Sudoeste 40 Sudoeste 0 -- -- 46
2019-08-09 12:00:00 28.9 22 Sudoeste 35 Sudoeste 0 -- -- 48
2019-08-09 11:00:00 26.9 17 Sudoeste 28 Sudoeste 0 -- -- 53
2019-08-09 10:00:00 25.4 15 Sudoeste 22 Sudoeste 0 -- -- 59
2019-08-09 09:00:00 23.9 12 Sur 20 Sur 0 -- -- 61
2019-08-09 08:00:00 21.6 8 Sur 13 Sudoeste 0 -- -- 67
2019-08-09 07:00:00 21.9 10 Sudoeste 14 Sudoeste 0 -- -- 64
2019-08-09 06:00:00 21.8 5 Sudoeste 13 Sudoeste 0 -- -- 62
2019-08-09 05:00:00 21.8 8 Sudoeste 12 Sudoeste 0 -- -- 61
2019-08-09 04:00:00 21.4 5 Oeste 8 Oeste 0 -- -- 57
2019-08-09 03:00:00 22.6 2 Sudoeste 14 Oeste 0 -- -- 53
2019-08-09 02:00:00 23.6 2 Oeste 5 Sudeste 0 -- -- 47
2019-08-09 01:00:00 25.8 4 Sudeste 6 Sudeste 0 -- -- 40
2019-08-09 00:00:00 27.4 4 Sur 22 Oeste 0 -- -- 38
2019-08-08 23:00:00 29.6 15 Oeste 25 Sudoeste 0 -- -- 36
2019-08-08 22:00:00 30.7 14 Oeste 28 Oeste 0 -- -- 35
2019-08-08 21:00:00 32.8 13 Oeste 31 Oeste 0 -- -- 31
2019-08-08 20:00:00 34.4 19 Sudoeste 37 Sudoeste 0 -- -- 28
2019-08-08 19:00:00 35.3 23 Sudoeste 39 Oeste 0 -- -- 28
2019-08-08 18:00:00 35.1 18 Sudoeste 34 Sudoeste 0 -- -- 29
2019-08-08 17:00:00 34.6 20 Sudoeste 35 Sudoeste 0 -- -- 29
2019-08-08 16:00:00 33.6 24 Sudoeste 37 Sudoeste 0 -- -- 32
2019-08-08 15:00:00 32.4 18 Sudoeste 35 Sur 0 -- -- 37
2019-08-08 14:00:00 31.1 15 Sudoeste 29 Sudoeste 0 -- -- 39
2019-08-08 13:00:00 29.7 15 Sudoeste 25 Sudoeste 0 -- -- 42
2019-08-08 12:00:00 27.9 11 Sudoeste 19 Sudoeste 0 -- -- 44
2019-08-08 11:00:00 25.6 8 Sur 18 Sur 0 -- -- 49
2019-08-08 10:00:00 23.1 8 Sudoeste 14 Sudoeste 0 -- -- 55
2019-08-08 09:00:00 20.8 5 Oeste 8 Sudoeste 0 -- -- 61
2019-08-08 08:00:00 18.6 0 Calma 5 Sudoeste 0 -- -- 69
2019-08-08 07:00:00 17.9 3 Oeste 11 Sudoeste 0 -- -- 69
2019-08-08 06:00:00 18 9 Sudoeste 11 Sudoeste 0 -- -- 69
2019-08-08 05:00:00 19.1 3 Sudoeste 8 Sur 0 -- -- 64
2019-08-08 04:00:00 20 7 Sur 9 Sur 0 -- -- 60
2019-08-08 03:00:00 20.7 3 Sudoeste 11 Sudeste 0 -- -- 58
2019-08-08 02:00:00 21.8 5 Sudoeste 14 Sudoeste 0 -- -- 54
2019-08-08 01:00:00 22.4 6 Sur 14 Oeste 0 -- -- 52
2019-08-08 00:00:00 22.8 11 Sudoeste 20 Sudoeste 0 -- -- 50
2019-08-07 23:00:00 23.8 6 Sudoeste 19 Sudoeste 0 -- -- 47
2019-08-07 22:00:00 25 14 Sudoeste 24 Sudoeste 0 -- -- 45
2019-08-07 21:00:00 26.7 15 Sudoeste 24 Sudoeste 0 -- -- 41
2019-08-07 20:00:00 27.6 15 Sudoeste 26 Sudoeste 0 -- -- 40
2019-08-07 19:00:00 28.5 15 Sudoeste 29 Oeste 0 -- -- 37
2019-08-07 18:00:00 29.2 18 Oeste 26 Oeste 0 -- -- 37
2019-08-07 17:00:00 28.2 9 Sudoeste 17 Sudoeste 0 -- -- 42
2019-08-07 16:00:00 27.7 14 Sudoeste 40 Sudoeste 0 -- -- 43
2019-08-07 15:00:00 28.3 17 Oeste 32 Sudoeste 0 -- -- 39
2019-08-07 14:00:00 28.8 19 Sudoeste 33 Sudoeste 0 -- -- 37
2019-08-07 13:00:00 27.8 18 Sudoeste 26 Sudoeste 0 -- -- 40
2019-08-07 12:00:00 27.2 15 Sudoeste 28 Sudoeste 0 -- -- 41
2019-08-07 11:00:00 26 14 Sudoeste 30 Sudoeste 0 -- -- 45
2019-08-07 10:00:00 25.5 18 Sudoeste 26 Sudoeste 0 -- -- 46
2019-08-07 09:00:00 25.2 13 Sudoeste 22 Sudoeste 0 -- -- 47
2019-08-07 08:00:00 24.1 12 Sudoeste 19 Sudoeste 0 -- -- 48
2019-08-07 07:00:00 23.9 7 Sudoeste 17 Sudoeste 0 -- -- 45
2019-08-07 06:00:00 24.3 7 Sur 17 Sudoeste 0 -- -- 43
2019-08-07 05:00:00 24.7 10 Sudoeste 17 Sudoeste 0 -- -- 41
2019-08-07 04:00:00 24.6 5 Sudoeste 19 Sudoeste 0 -- -- 36
2019-08-07 03:00:00 25.2 8 Sudoeste 19 Sudoeste 0 -- -- 34
2019-08-07 02:00:00 25.3 12 Sudoeste 15 Sudoeste 0 -- -- 36
2019-08-07 01:00:00 26.5 7 Sudoeste 12 Sur 0 -- -- 31
2019-08-07 00:00:00 28.4 8 Sur 28 Oeste 0 -- -- 29
2019-08-06 23:00:00 30.2 18 Oeste 32 Oeste 0 -- -- 28
2019-08-06 22:00:00 31.5 18 Oeste 28 Oeste 0 -- -- 26
2019-08-06 21:00:00 33.1 15 Oeste 27 Sudoeste 0 -- -- 23
2019-08-06 20:00:00 34.8 17 Sudoeste 33 Sudoeste 0 -- -- 19
2019-08-06 19:00:00 36.2 20 Oeste 32 Oeste 0 -- -- 17
2019-08-06 18:00:00 36.8 20 Sur 32 Sudoeste 0 -- -- 16
2019-08-06 17:00:00 36.9 19 Sudoeste 31 Sur 0 -- -- 16
2019-08-06 16:00:00 36.6 17 Sudoeste 29 Sudoeste 0 -- -- 17
2019-08-06 15:00:00 35.2 15 Sudoeste 32 Oeste 0 -- -- 16
2019-08-06 14:00:00 34.5 14 Sudoeste 31 Sudoeste 0 -- -- 18
2019-08-06 13:00:00 33.8 15 Sudoeste 28 Sudoeste 0 -- -- 20
2019-08-06 12:00:00 31.5 13 Sudoeste 22 Sur 0 -- -- 24
2019-08-06 11:00:00 28.9 12 Sudoeste 17 Sudoeste 0 -- -- 28
2019-08-06 10:00:00 25.3 2 Oeste 5 Sudoeste 0 -- -- 29
2019-08-06 09:00:00 23.2 2 Sudeste 4 Sur 0 -- -- 33
2019-08-06 08:00:00 18.1 2 Norte 4 Norte 0 -- -- 47
2019-08-06 07:00:00 17.1 3 Sudoeste 5 Sudoeste 0 -- -- 41
2019-08-06 06:00:00 19 0 Calma 4 Noroeste 0 -- -- 43
2019-08-06 05:00:00 19.4 0 Calma 7 Oeste 0 -- -- 42
2019-08-06 04:00:00 20.4 0 Calma 8 Nordeste 0 -- -- 34
2019-08-06 03:00:00 22.2 3 Nordeste 6 Nordeste 0 -- -- 36
2019-08-06 02:00:00 23.7 5 Oeste 10 Sudoeste 0 -- -- 33
2019-08-06 01:00:00 25.1 5 Sudoeste 12 Sur 0 -- -- 27
2019-08-06 00:00:00 26.3 2 Oeste 9 Sur 0 -- -- 28
2019-08-05 23:00:00 28.5 3 Sur 12 Noroeste 0 -- -- 25
2019-08-05 22:00:00 31.1 5 Oeste 15 Oeste 0 -- -- 23
2019-08-05 21:00:00 34.9 10 Oeste 23 Sudoeste 0 -- -- 19
2019-08-05 20:00:00 36.5 13 Oeste 22 Oeste 0 -- -- 18
2019-08-05 19:00:00 37.4 9 Sudoeste 22 Sur 0 -- -- 19
2019-08-05 18:00:00 36.8 13 Sudoeste 28 Sudoeste 0 -- -- 19
2019-08-05 17:00:00 36.8 18 Sur 35 Sudoeste 0 -- -- 19
2019-08-05 16:00:00 36.9 15 Sur 34 Sudoeste 0 -- -- 18
2019-08-05 15:00:00 35.8 15 Sur 32 Sur 0 -- -- 21
2019-08-05 14:00:00 34.5 11 Sudoeste 30 Sudoeste 0 -- -- 24
2019-08-05 13:00:00 33.2 10 Sudoeste 15 Sudoeste 0 -- -- 26
2019-08-05 12:00:00 30.4 6 Oeste 14 Sudoeste 0 -- -- 31
2019-08-05 11:00:00 28 4 Oeste 10 Sudoeste 0 -- -- 34
2019-08-05 10:00:00 25 7 Sudoeste 10 Sudoeste 0 -- -- 40
2019-08-05 09:00:00 22.4 0 Calma 3 Oeste 0 -- -- 42
2019-08-05 08:00:00 18.6 0 Calma 5 Oeste 0 -- -- 53
2019-08-05 07:00:00 18.2 0 Calma 4 Oeste 0 -- -- 43
2019-08-05 06:00:00 19.4 2 Nordeste 3 Este 0 -- -- 46
2019-08-05 05:00:00 19.5 2 Sudoeste 4 Oeste 0 -- -- 46
2019-08-05 04:00:00 20.7 2 Sudoeste 5 Sudoeste 0 -- -- 42
2019-08-05 03:00:00 21.6 2 Sudeste 4 Sudeste 0 -- -- 38
2019-08-05 02:00:00 22 0 Calma 4 Este 0 -- -- 32
2019-08-05 01:00:00 23.9 2 Este 6 Este 0 -- -- 32
2019-08-05 00:00:00 25.4 3 Nordeste 5 Este 0 -- -- 30
2019-08-04 23:00:00 27.5 3 Sudoeste 8 Sur 0 -- -- 27
2019-08-04 22:00:00 30.2 4 Sur 12 Sudoeste 0 -- -- 22
2019-08-04 21:00:00 34.2 10 Sudoeste 24 Sudoeste 0 -- -- 19
2019-08-04 20:00:00 36.1 10 Sudoeste 27 Sudoeste 0 -- -- 15
2019-08-04 19:00:00 36.8 15 Sudoeste 34 Sudoeste 0 -- -- 16
2019-08-04 18:00:00 37 14 Sudoeste 30 Sudoeste 0 -- -- 17
2019-08-04 17:00:00 36.9 15 Sur 34 Sudoeste 0 -- -- 17
2019-08-04 16:00:00 36.2 14 Sudoeste 34 Sudoeste 0 -- -- 19
2019-08-04 15:00:00 35.5 17 Sudoeste 30 Oeste 0 -- -- 21
2019-08-04 14:00:00 34.7 15 Sudoeste 31 Sudoeste 0 -- -- 21
2019-08-04 13:00:00 33.7 10 Sur 21 Sur 0 -- -- 25
2019-08-04 12:00:00 31 5 Sudoeste 13 Sur 0 -- -- 27
2019-08-04 11:00:00 28.8 5 Sur 12 Sudoeste 0 -- -- 29
2019-08-04 10:00:00 25.5 4 Sudoeste 8 Oeste 0 -- -- 32
2019-08-04 09:00:00 23.2 0 Calma 6 Nordeste 0 -- -- 35
2019-08-04 08:00:00 19.2 5 Nordeste 8 Nordeste 0 -- -- 44
2019-08-04 07:00:00 18 2 Nordeste 4 Sudeste 0 -- -- 49
2019-08-04 06:00:00 18.6 2 Oeste 7 Noroeste 0 -- -- 43
2019-08-04 05:00:00 19.8 0 Calma 4 Noroeste 0 -- -- 44
2019-08-04 04:00:00 20.1 5 Oeste 10 Oeste 0 -- -- 44
2019-08-04 03:00:00 20.8 2 Este 8 Norte 0 -- -- 36
2019-08-04 02:00:00 21.2 0 Calma 5 Noroeste 0 -- -- 32
2019-08-04 01:00:00 22.5 0 Calma 4 Nordeste 0 -- -- 27
2019-08-04 00:00:00 25.2 3 Este 5 Sudeste 0 -- -- 27
2019-08-03 23:00:00 27.5 2 Este 6 Sur 0 -- -- 22
2019-08-03 22:00:00 30.8 4 Oeste 17 Oeste 0 -- -- 19
2019-08-03 21:00:00 34.6 12 Oeste 23 Oeste 0 -- -- 16
2019-08-03 20:00:00 36.5 14 Sudoeste 23 Oeste 0 -- -- 15
2019-08-03 19:00:00 37.1 10 Sudoeste 29 Sudoeste 0 -- -- 15
2019-08-03 18:00:00 37.6 13 Sur 27 Sudoeste 0 -- -- 16
2019-08-03 17:00:00 37.3 17 Sur 57 Oeste 0 -- -- 17
2019-08-03 16:00:00 36.3 15 Sur 30 Sudoeste 0 -- -- 18
2019-08-03 15:00:00 35.4 8 Sudoeste 26 Sudoeste 0 -- -- 19
2019-08-03 14:00:00 34.5 10 Sudoeste 23 Sur 0 -- -- 22
2019-08-03 13:00:00 32.9 5 Norte 13 Oeste 0 -- -- 31
2019-08-03 12:00:00 30 5 Oeste 12 Sudeste 0 -- -- 36
2019-08-03 11:00:00 27.8 3 Oeste 9 Sudoeste 0 -- -- 41
2019-08-03 10:00:00 26.3 3 Norte 10 Nordeste 0 -- -- 45
2019-08-03 09:00:00 24.1 6 Nordeste 9 Este 0 -- -- 48
2019-08-03 08:00:00 19.1 0 Calma 5 Este 0 -- -- 59
2019-08-03 07:00:00 18.5 3 Norte 5 Nordeste 0 -- -- 54
2019-08-03 06:00:00 18.6 0 Calma 6 Noroeste 0 -- -- 45
2019-08-03 05:00:00 20.3 0 Calma 9 Este 0 -- -- 42
2019-08-03 04:00:00 21.9 2 Nordeste 10 Nordeste 0 -- -- 35
2019-08-03 03:00:00 22.2 8 Nordeste 16 Nordeste 0 -- -- 29
2019-08-03 02:00:00 21 2 Nordeste 6 Nordeste 0 -- -- 33
2019-08-03 01:00:00 22.4 3 Nordeste 5 Nordeste 0 -- -- 32
2019-08-03 00:00:00 24.1 0 Calma 4 Noroeste 0 -- -- 31
2019-08-02 23:00:00 27 0 Calma 6 Nordeste 0 -- -- 27
2019-08-02 22:00:00 30.3 3 Sur 5 Oeste 0 -- -- 21
2019-08-02 21:00:00 35.1 5 Oeste 15 Oeste 0 -- -- 18
2019-08-02 20:00:00 36.3 7 Oeste 24 Oeste 0 -- -- 15
2019-08-02 19:00:00 36.6 10 Oeste 23 Oeste 0 -- -- 15
2019-08-02 18:00:00 36.8 9 Oeste 30 Sudoeste 0 -- -- 16
2019-08-02 17:00:00 36.8 14 Sur 31 Sur 0 -- -- 17
2019-08-02 16:00:00 36 10 Sur 28 Sudoeste 0 -- -- 20
2019-08-02 15:00:00 35.4 10 Sur 20 Sudoeste 0 -- -- 20
2019-08-02 14:00:00 34.2 12 Sur 22 Sudoeste 0 -- -- 22
2019-08-02 13:00:00 32.3 6 Sur 18 Oeste 0 -- -- 26
2019-08-02 12:00:00 30.7 5 Norte 11 Noroeste 0 -- -- 29
2019-08-02 11:00:00 27.9 4 Nordeste 12 Este 0 -- -- 36
2019-08-02 10:00:00 25.4 5 Nordeste 11 Nordeste 0 -- -- 45
2019-08-02 09:00:00 22.8 6 Nordeste 10 Este 0 -- -- 49
2019-08-02 08:00:00 19.9 3 Norte 8 Este 0 -- -- 56
2019-08-02 07:00:00 20.3 5 Nordeste 11 Norte 0 -- -- 60
2019-08-02 06:00:00 20.8 4 Nordeste 11 Nordeste 0 -- -- 58
2019-08-02 05:00:00 20.5 5 Este 9 Nordeste 0 -- -- 47
2019-08-02 04:00:00 21.2 3 Este 10 Sudeste 0 -- -- 37
2019-08-02 03:00:00 21.1 7 Este 12 Este 0 -- -- 36
2019-08-02 02:00:00 21.9 0 Calma 7 Noroeste 0 -- -- 38
2019-08-02 01:00:00 23.8 2 Sur 13 Norte 0 -- -- 31
2019-08-02 00:00:00 25.8 5 Sudoeste 12 Sur 0 -- -- 28
2019-08-01 23:00:00 28.3 7 Sudoeste 24 Oeste 0 -- -- 24
2019-08-01 22:00:00 29.8 12 Sudoeste 19 Oeste 0 -- -- 21
2019-08-01 21:00:00 32.7 15 Oeste 31 Oeste 0 -- -- 19
2019-08-01 20:00:00 34.6 18 Sudoeste 31 Sudoeste 0 -- -- 18
2019-08-01 19:00:00 35.3 16 Sudoeste 32 Sudoeste 0 -- -- 22
2019-08-01 18:00:00 35.4 19 Sudoeste 38 Sudoeste 0 -- -- 22
2019-08-01 17:00:00 35 21 Sudoeste 36 Sudoeste 0 -- -- 21
2019-08-01 16:00:00 34.9 20 Sudoeste 38 Sudoeste 0 -- -- 23
2019-08-01 15:00:00 33.6 19 Sur 31 Sudoeste 0 -- -- 25
2019-08-01 14:00:00 32.2 13 Sudoeste 21 Sudoeste 0 -- -- 28
2019-08-01 13:00:00 30.7 6 Sur 20 Este 0 -- -- 38
2019-08-01 12:00:00 28.6 5 Sudoeste 12 Sudeste 0 -- -- 44
2019-08-01 11:00:00 26.2 5 Sudeste 12 Sur 0 -- -- 50
2019-08-01 10:00:00 24.7 6 Sudeste 14 Este 0 -- -- 53
2019-08-01 09:00:00 22.9 9 Este 14 Este 0 -- -- 57
2019-08-01 08:00:00 21.7 4 Sudeste 13 Este 0 -- -- 60
2019-08-01 07:00:00 21.7 10 Este 17 Este 0 -- -- 60
2019-08-01 06:00:00 22.2 9 Sudeste 18 Sudeste 0 -- -- 60
2019-08-01 05:00:00 22.6 9 Este 18 Este 0 -- -- 58
2019-08-01 04:00:00 23.1 9 Este 23 Sudeste 0 -- -- 57
2019-08-01 03:00:00 23.8 13 Este 24 Este 0 -- -- 56
2019-08-01 02:00:00 24.6 12 Sudeste 31 Sudeste 0 -- -- 55
2019-08-01 01:00:00 25.8 8 Sudeste 45 Sudeste 0 -- -- 55
2019-08-01 00:00:00 26.9 27 Sudeste 46 Este 0 -- -- 52
2019-07-31 23:00:00 28 29 Sudeste 44 Sudeste 0 -- -- 49
2019-07-31 22:00:00 29.2 25 Este 44 Este 0 -- -- 46
2019-07-31 21:00:00 30.8 28 Este 43 Sudeste 0 -- -- 42
2019-07-31 20:00:00 34.2 23 Sudeste 38 Sudeste 0 -- -- 33
2019-07-31 19:00:00 35.8 13 Sudeste 28 Sudeste 0 -- -- 26
2019-07-31 18:00:00 35.5 15 Sur 33 Sudeste 0 -- -- 26
2019-07-31 17:00:00 35.4 11 Sur 29 Sur 0 -- -- 27
2019-07-31 16:00:00 35 14 Sudeste 34 Sudeste 0 -- -- 28
2019-07-31 15:00:00 33.8 10 Sudeste 30 Sur 0 -- -- 30
2019-07-31 14:00:00 32.1 13 Sudeste 26 Sudeste 0 -- -- 34
2019-07-31 13:00:00 30.5 12 Sur 26 Sudeste 0 -- -- 39
2019-07-31 12:00:00 28.6 12 Sudeste 22 Sudeste 0 -- -- 43
2019-07-31 11:00:00 25.6 10 Norte 19 Nordeste 0 -- -- 43
2019-07-31 10:00:00 22.7 12 Norte 24 Norte 0 -- -- 47
2019-07-31 09:00:00 20 12 Nordeste 26 Nordeste 0 -- -- 49
2019-07-31 08:00:00 18.7 14 Nordeste 25 Nordeste 0 -- -- 51
2019-07-31 07:00:00 18.2 12 Nordeste 24 Nordeste 0 -- -- 52
2019-07-31 06:00:00 18.4 13 Nordeste 25 Nordeste 0 -- -- 51
2019-07-31 05:00:00 18.8 14 Norte 29 Nordeste 0 -- -- 50
2019-07-31 04:00:00 19.3 8 Nordeste 19 Nordeste 0 -- -- 48
2019-07-31 03:00:00 20.2 8 Nordeste 28 Norte 0 -- -- 46
2019-07-31 02:00:00 21.3 17 Norte 39 Norte 0 -- -- 42
2019-07-31 01:00:00 23.1 21 Nordeste 37 Norte 0 -- -- 38
2019-07-31 00:00:00 25.1 18 Norte 36 Norte 0 -- -- 31
2019-07-30 23:00:00 23.9 4 Nordeste 8 Nordeste 0 -- -- 25
2019-07-30 22:00:00 27.4 4 Este 7 Norte 0 -- -- 21
2019-07-30 21:00:00 31 4 Nordeste 9 Norte 0 -- -- 18
2019-07-30 20:00:00 32.4 4 Sudoeste 12 Oeste 0 -- -- 16
2019-07-30 19:00:00 33.2 4 Oeste 16 Noroeste 0 -- -- 16
2019-07-30 18:00:00 32.6 8 Nordeste 15 Sudeste 0 -- -- 17
2019-07-30 17:00:00 33.4 9 Norte 19 Noroeste 0 -- -- 16
2019-07-30 16:00:00 31.9 9 Noroeste 20 Norte 0 -- -- 18
2019-07-30 15:00:00 30.6 9 Noroeste 18 Oeste 0 -- -- 20
2019-07-30 14:00:00 29.3 6 Sudoeste 16 Noroeste 0 -- -- 24
2019-07-30 13:00:00 28.3 8 Oeste 23 Norte 0 -- -- 28
2019-07-30 12:00:00 26.3 11 Norte 23 Nordeste 0 -- -- 31
2019-07-30 11:00:00 24.4 12 Norte 23 Nordeste 0 -- -- 33
2019-07-30 10:00:00 22.7 9 Norte 19 Nordeste 0 -- -- 36
2019-07-30 09:00:00 20.6 4 Norte 9 Norte 0 -- -- 41
2019-07-30 08:00:00 17.3 5 Este 9 Este 0 -- -- 45
2019-07-30 07:00:00 15.1 3 Este 7 Este 0 -- -- 46
2019-07-30 06:00:00 15.4 3 Noroeste 6 Sudeste 0 -- -- 44
2019-07-30 05:00:00 16.3 3 Sudeste 8 Sudeste 0 -- -- 44
2019-07-30 04:00:00 17.2 0 Calma 8 Nordeste 0 -- -- 42
2019-07-30 03:00:00 19.1 0 Calma 8 Este 0 -- -- 39
2019-07-30 02:00:00 21.2 0 Calma 14 Oeste 0 -- -- 37
2019-07-30 01:00:00 22.7 6 Oeste 15 Oeste 0 -- -- 29
2019-07-30 00:00:00 25.4 9 Oeste 17 Oeste 0 -- -- 27
2019-07-29 23:00:00 26.7 8 Oeste 19 Noroeste 0 -- -- 27
2019-07-29 22:00:00 28.4 9 Noroeste 31 Sudoeste 0 -- -- 27
2019-07-29 21:00:00 30.8 23 Oeste 38 Oeste 0 -- -- 23
2019-07-29 20:00:00 32.2 28 Sudoeste 39 Sudoeste 0 -- -- 23
2019-07-29 19:00:00 33.2 26 Oeste 42 Sudoeste 0 -- -- 20
2019-07-29 18:00:00 33.9 24 Oeste 42 Sudoeste 0 -- -- 18
2019-07-29 17:00:00 34.2 21 Sudoeste 42 Sudoeste 0 -- -- 16
2019-07-29 16:00:00 33.8 24 Oeste 37 Oeste 0 -- -- 19
2019-07-29 15:00:00 33.1 18 Sudoeste 34 Sudoeste 0 -- -- 23
2019-07-29 14:00:00 32.2 21 Sudoeste 33 Sudoeste 0 -- -- 26
2019-07-29 13:00:00 31.2 19 Sudoeste 33 Sudoeste 0 -- -- 29
2019-07-29 12:00:00 28.7 11 Sur 15 Sur 0 -- -- 32
2019-07-29 11:00:00 25.4 7 Sudoeste 10 Oeste 0 -- -- 35
2019-07-29 10:00:00 23 3 Oeste 9 Sudoeste 0 -- -- 40
2019-07-29 09:00:00 20.9 4 Nordeste 8 Nordeste 0 -- -- 40
2019-07-29 08:00:00 17.6 4 Este 6 Este 0 -- -- 51
2019-07-29 07:00:00 15.7 0 Calma 6 Nordeste 0 -- -- 51
2019-07-29 06:00:00 16.9 3 Nordeste 4 Nordeste 0 -- -- 53
2019-07-29 05:00:00 17.8 3 Sur 3 Sudeste 0 -- -- 50
2019-07-29 04:00:00 19.1 2 Nordeste 4 Noroeste 0 -- -- 48
2019-07-29 03:00:00 20.3 5 Sudoeste 8 Sudoeste 0 -- -- 45
2019-07-29 02:00:00 21 4 Oeste 6 Sudoeste 0 -- -- 44
2019-07-29 01:00:00 21.5 0 Calma 3 Norte 0 -- -- 36
2019-07-29 00:00:00 22.9 0 Calma 5 Sur 0 -- -- 36
2019-07-28 23:00:00 24.6 3 Sur 5 Sur 0 -- -- 32
2019-07-28 22:00:00 26.9 4 Sudoeste 13 Sur 0 -- -- 29
2019-07-28 21:00:00 29.9 11 Sudoeste 21 Sudoeste 0 -- -- 24
2019-07-28 20:00:00 30.8 9 Sudoeste 24 Sur 0 -- -- 24
2019-07-28 19:00:00 31.2 11 Sudoeste 30 Sudoeste 0 -- -- 24
2019-07-28 18:00:00 30.9 10 Sur 34 Sur 0 -- -- 25
2019-07-28 17:00:00 30.6 6 Sudeste 29 Oeste 0 -- -- 27
2019-07-28 16:00:00 29.5 5 Oeste 23 Oeste 0 -- -- 28
2019-07-28 15:00:00 29.1 6 Noroeste 21 Sudoeste 0 -- -- 30
2019-07-28 14:00:00 28 8 Noroeste 19 Norte 0 -- -- 32
2019-07-28 13:00:00 26 5 Sur 17 Norte 0 -- -- 35
2019-07-28 12:00:00 24.4 6 Norte 16 Norte 0 -- -- 37
2019-07-28 11:00:00 22.5 5 Norte 13 Nordeste 0 -- -- 43
2019-07-28 10:00:00 20 7 Nordeste 14 Norte 0 -- -- 50
2019-07-28 09:00:00 18.3 8 Nordeste 13 Norte 0 -- -- 54
2019-07-28 08:00:00 16.2 3 Nordeste 8 Nordeste 0 -- -- 62
2019-07-28 07:00:00 15.4 5 Norte 9 Norte 0 -- -- 62
2019-07-28 06:00:00 16.2 3 Este 9 Este 0 -- -- 61
2019-07-28 05:00:00 16.9 5 Nordeste 10 Nordeste 0 -- -- 60
2019-07-28 04:00:00 18 5 Nordeste 14 Nordeste 0 -- -- 59
2019-07-28 03:00:00 18.9 5 Nordeste 9 Nordeste 0 -- -- 59
2019-07-28 02:00:00 20.2 2 Nordeste 20 Norte 0 -- -- 53
2019-07-28 01:00:00 21.3 9 Norte 21 Norte 0 -- -- 51
2019-07-28 00:00:00 22.5 13 Norte 22 Norte 0 -- -- 47
2019-07-27 23:00:00 24.5 9 Norte 27 Noroeste 0 -- -- 38
2019-07-26 12:00:00 -- -- -- -- -- -- -- -- --
2019-07-26 11:00:00 -- -- -- -- -- -- -- -- --
2019-07-26 10:00:00 -- -- -- -- -- -- -- -- --
2019-07-26 09:00:00 -- -- -- -- -- -- -- -- --
2019-07-26 08:00:00 23.7 16 Sudoeste 26 Sudoeste 0 -- -- 56
2019-07-26 07:00:00 24.1 12 Sudoeste 18 Sudoeste 0 -- -- 53
2019-07-26 06:00:00 24.5 11 Sudoeste 22 Sudoeste 0 -- -- 51
2019-07-26 05:00:00 25 7 Sudoeste 17 Sur 0 -- -- 45
2019-07-26 04:00:00 25.2 13 Sudoeste 17 Sudoeste 0 -- -- 40
2019-07-26 03:00:00 24.4 4 Oeste 10 Sudoeste 0 -- -- 41
2019-07-26 02:00:00 24.3 0 Calma 7 Oeste 0 -- -- 44
2019-07-26 01:00:00 25.1 0 Calma 4 Este 0 -- -- 37
2019-07-26 00:00:00 27.2 0 Calma 8 Noroeste 0 -- -- 32
2019-07-25 23:00:00 29.1 3 Sudoeste 11 Oeste 0 -- -- 29
2019-07-25 22:00:00 31.6 10 Oeste 27 Oeste 0 -- -- 26
2019-07-25 21:00:00 34.2 15 Oeste 33 Oeste 0 -- -- 24
2019-07-25 20:00:00 35.9 24 Oeste 36 Oeste 0 -- -- 22
2019-07-25 19:00:00 37.4 20 Sudoeste 36 Sudoeste 0 -- -- 19
2019-07-25 18:00:00 37.4 17 Sudoeste 36 Sudoeste 0 -- -- 19
2019-07-25 17:00:00 37.5 17 Sur 35 Sudoeste 0 -- -- 21
2019-07-25 16:00:00 37 25 Sudoeste 37 Sudoeste 0 -- -- 21
2019-07-25 15:00:00 35.9 15 Sudoeste 34 Sudoeste 0 -- -- 24
2019-07-25 14:00:00 35.6 14 Sur 26 Sudoeste 0 -- -- 24
2019-07-25 13:00:00 34.2 14 Sur 23 Sudoeste 0 -- -- 27
2019-07-25 12:00:00 31.7 8 Sudoeste 20 Sudoeste 0 -- -- 32
2019-07-25 11:00:00 29.4 13 Sudoeste 22 Sudoeste 0 -- -- 35
2019-07-25 10:00:00 27.2 7 Oeste 12 Oeste 0 -- -- 39
2019-07-25 09:00:00 25.3 0 Calma 4 Oeste 0 -- -- 40
2019-07-25 08:00:00 23.5 0 Calma 8 Nordeste 0 -- -- 41
2019-07-25 07:00:00 23.8 5 Nordeste 9 Este 0 -- -- 39
2019-07-25 06:00:00 24.8 4 Este 13 Sudeste 0 -- -- 37
2019-07-25 05:00:00 26.3 5 Este 12 Sudeste 0 -- -- 34
2019-07-25 04:00:00 27.3 7 Este 19 Este 0 -- -- 33
2019-07-25 03:00:00 27.8 3 Noroeste 29 Sudeste 0 -- -- 30
2019-07-25 02:00:00 29.5 18 Sudeste 37 Sudeste 0 -- -- 27
2019-07-25 01:00:00 30.3 19 Sudeste 37 Sudeste 0 -- -- 26
2019-07-25 00:00:00 31.4 18 Sudeste 34 Sudeste 0 -- -- 24
2019-07-24 23:00:00 33 18 Sudeste 31 Sudeste 0 -- -- 22
2019-07-24 22:00:00 32.9 9 Sudeste 16 Sudeste 0 -- -- 24
2019-07-24 21:00:00 35.9 9 Sudoeste 22 Sudoeste 0 -- -- 23
2019-07-24 20:00:00 37.8 15 Sudoeste 27 Oeste 0 -- -- 20
2019-07-24 19:00:00 38.7 16 Sudoeste 32 Sudoeste 0 -- -- 19
2019-07-24 18:00:00 38.6 18 Sudoeste 32 Sudoeste 0 -- -- 19
2019-07-24 17:00:00 38.9 14 Sudeste 28 Sur 0 -- -- 19
2019-07-24 16:00:00 38.6 17 Sur 31 Sur 0 -- -- 20
2019-07-24 15:00:00 37.4 13 Sudeste 30 Sudeste 0 -- -- 23
2019-07-24 14:00:00 35.9 14 Sudeste 25 Sudoeste 0 -- -- 28
2019-07-24 13:00:00 34.8 9 Sudeste 20 Sur 0 -- -- 29
2019-07-24 12:00:00 31.8 4 Noroeste 12 Noroeste 0 -- -- 30
2019-07-24 11:00:00 30.3 5 Este 11 Este 0 -- -- 33
2019-07-24 10:00:00 27.3 6 Nordeste 10 Este 0 -- -- 45
2019-07-24 09:00:00 23.4 5 Nordeste 10 Nordeste 0 -- -- 60
2019-07-24 08:00:00 20.5 3 Nordeste 9 Nordeste 0 -- -- 69
2019-07-24 07:00:00 19.6 0 Calma 4 Nordeste 0 -- -- 80
2019-07-24 06:00:00 20.3 0 Calma 5 Este 0 -- -- 77
2019-07-24 05:00:00 21.7 0 Calma 8 Sur 0 -- -- 73
2019-07-24 04:00:00 23.9 3 Norte 11 Nordeste 0 -- -- 57
2019-07-24 03:00:00 23.3 6 Noroeste 21 Nordeste 0 -- -- 70
2019-07-24 02:00:00 23.3 9 Nordeste 27 Este 2 -- -- 67
2019-07-24 01:00:00 27.9 18 Este 50 Sudeste 0 -- -- 40
2019-07-24 00:00:00 27 10 Oeste 33 Oeste 0 -- -- 40
2019-07-23 23:00:00 27.8 22 Oeste 36 Oeste 0 -- -- 40
2019-07-23 22:00:00 27.2 8 Oeste 19 Sudeste 0 -- -- 48
2019-07-23 21:00:00 28.1 23 Sur 49 Sur 0.2 -- -- 43
2019-07-23 20:00:00 31.6 39 Oeste 64 Sur 0 -- -- 33
2019-07-23 19:00:00 38.7 18 Sudeste 42 Sudeste 0 -- -- 17
2019-07-23 18:00:00 40 13 Sudeste 32 Sudeste 0 -- -- 17
2019-07-23 17:00:00 39.9 12 Sudeste 30 Sudeste 0 -- -- 17
2019-07-23 16:00:00 39.1 16 Sudeste 31 Sur 0 -- -- 18
2019-07-23 15:00:00 37.8 11 Sudeste 27 Sur 0 -- -- 18
2019-07-23 14:00:00 36.8 8 Sudeste 24 Sudeste 0 -- -- 18
2019-07-23 13:00:00 35.4 7 Noroeste 14 Noroeste 0 -- -- 21
2019-07-23 12:00:00 33 5 Norte 18 Noroeste 0 -- -- 23
2019-07-23 11:00:00 31.3 8 Oeste 15 Sudoeste 0 -- -- 25
2019-07-23 10:00:00 29.9 8 Este 19 Sudeste 0 -- -- 27
2019-07-23 09:00:00 27 8 Nordeste 18 Nordeste 0 -- -- 32
2019-07-23 08:00:00 23.7 3 Nordeste 11 Este 0 -- -- 42
2019-07-23 07:00:00 24.3 7 Este 10 Este 0 -- -- 38
2019-07-23 06:00:00 24 4 Nordeste 20 Este 0.2 -- -- 48
2019-07-23 05:00:00 24.2 6 Sudeste 13 Este 0 -- -- 53
2019-07-23 04:00:00 26.7 7 Nordeste 21 Sudeste 0.2 -- -- 47
2019-07-23 03:00:00 28.3 4 Norte 30 Sudeste 0 -- -- 29
2019-07-23 02:00:00 29.4 17 Este 50 Sudeste 0 -- -- 29
2019-07-23 01:00:00 30 23 Sudeste 49 Sudeste 0 -- -- 29
2019-07-23 00:00:00 30.8 32 Sudeste 56 Sudeste 0 -- -- 30
2019-07-22 23:00:00 32.4 21 Sudeste 40 Sudeste 0 -- -- 28
2019-07-22 22:00:00 33.8 21 Sudeste 37 Sudeste 0 -- -- 17
2019-07-22 21:00:00 35.8 25 Sudeste 39 Sudeste 0 -- -- 19
2019-07-22 20:00:00 38 23 Sudeste 36 Sudeste 0 -- -- 20
2019-07-22 19:00:00 39 26 Sudeste 41 Sudeste 0 -- -- 20
2019-07-22 18:00:00 39.2 23 Sudeste 53 Este 0 -- -- 19
2019-07-22 17:00:00 39.2 23 Sudeste 36 Este 0 -- -- 20
2019-07-22 16:00:00 38.6 15 Sudeste 37 Este 0 -- -- 19
2019-07-22 15:00:00 37.8 18 Sudeste 32 Sur 0 -- -- 20
2019-07-22 14:00:00 36.3 11 Sudeste 28 Este 0 -- -- 22
2019-07-22 13:00:00 34.6 13 Sudeste 26 Este 0 -- -- 23
2019-07-22 12:00:00 33.1 15 Sudeste 23 Sudeste 0 -- -- 25
2019-07-22 11:00:00 30.6 10 Este 19 Este 0 -- -- 26
2019-07-22 10:00:00 28.6 7 Nordeste 14 Nordeste 0 -- -- 28
2019-07-22 09:00:00 26.2 5 Norte 10 Nordeste 0 -- -- 33
2019-07-22 08:00:00 23.2 4 Nordeste 13 Nordeste 0 -- -- 37
2019-07-22 07:00:00 22.3 5 Norte 12 Este 0 -- -- 39
2019-07-22 06:00:00 23.3 8 Este 12 Este 0 -- -- 38
2019-07-22 05:00:00 24.7 5 Nordeste 17 Norte 0 -- -- 38
2019-07-22 04:00:00 25.6 6 Nordeste 17 Nordeste 0 -- -- 37
2019-07-22 03:00:00 27 8 Este 30 Sudeste 0 -- -- 36
2019-07-22 02:00:00 27.9 19 Sudeste 46 Sudeste 0 -- -- 34
2019-07-22 01:00:00 29.3 26 Sudeste 52 Sudeste 0 -- -- 34
2019-07-22 00:00:00 30.7 27 Sudeste 49 Sudeste 0 -- -- 36
2019-07-21 23:00:00 32.2 27 Sudeste 42 Sudeste 0 -- -- 34
2019-07-21 22:00:00 34 18 Sudeste 33 Sudeste 0 -- -- 30
2019-07-21 21:00:00 35.8 23 Sudeste 33 Sudeste 0 -- -- 27
2019-07-21 20:00:00 37.8 15 Sudeste 30 Sudeste 0 -- -- 23
2019-07-21 19:00:00 40.2 20 Sur 34 Sudeste 0 -- -- 21
2019-07-21 18:00:00 39.1 7 Noroeste 23 Oeste 0 -- -- 22
2019-07-21 17:00:00 39 10 Oeste 22 Sudoeste 0 -- -- 22
2019-07-21 16:00:00 38.9 9 Sudoeste 22 Sur 0 -- -- 23
2019-07-21 15:00:00 37.4 8 Oeste 18 Sudoeste 0 -- -- 23
2019-07-21 14:00:00 36.4 9 Sur 19 Sudeste 0 -- -- 26
2019-07-21 13:00:00 34.7 6 Nordeste 22 Sudeste 0 -- -- 28
2019-07-21 12:00:00 33.1 5 Este 15 Sudeste 0 -- -- 30
2019-07-21 11:00:00 31.1 8 Este 16 Este 0 -- -- 33
2019-07-21 10:00:00 28.9 6 Nordeste 18 Nordeste 0 -- -- 37
2019-07-21 09:00:00 26.7 6 Nordeste 11 Nordeste 0 -- -- 41
2019-07-21 08:00:00 24.7 5 Nordeste 11 Nordeste 0 -- -- 46
2019-07-21 07:00:00 24 5 Nordeste 9 Nordeste 0 -- -- 48
2019-07-21 06:00:00 25 6 Nordeste 16 Este 0 -- -- 46
2019-07-21 05:00:00 26.1 9 Este 22 Este 0 -- -- 44
2019-07-21 04:00:00 26.6 11 Sur 39 Sudeste 0 -- -- 42
2019-07-21 03:00:00 27.7 24 Este 41 Este 0 -- -- 39
2019-07-21 02:00:00 28.9 31 Sudeste 49 Sudeste 0 -- -- 37
2019-07-21 01:00:00 30.1 22 Sudeste 40 Sudeste 0 -- -- 38
2019-07-21 00:00:00 31.8 27 Sudeste 40 Sudeste 0 -- -- 35
2019-07-20 23:00:00 31.5 3 Sudeste 6 Sur 0 -- -- 29
2019-07-20 22:00:00 34.1 2 Oeste 7 Sudoeste 0 -- -- 27
2019-07-20 21:00:00 37 5 Oeste 15 Sudoeste 0 -- -- 24
2019-07-20 20:00:00 37.8 10 Oeste 18 Oeste 0 -- -- 22
2019-07-20 19:00:00 38.9 7 Sudoeste 18 Sudoeste 0 -- -- 21
2019-07-20 18:00:00 38.7 9 Sur 24 Sur 0 -- -- 21
2019-07-20 17:00:00 38.4 12 Sudoeste 28 Sudoeste 0 -- -- 20
2019-07-20 16:00:00 37.6 13 Oeste 24 Oeste 0 -- -- 21
2019-07-20 15:00:00 36.7 13 Oeste 21 Oeste 0 -- -- 24
2019-07-20 14:00:00 35.7 9 Sudoeste 22 Nordeste 0 -- -- 26
2019-07-20 13:00:00 34 6 Sudeste 18 Sudeste 0 -- -- 29
2019-07-20 12:00:00 31.7 6 Este 18 Este 0 -- -- 32
2019-07-20 11:00:00 29.8 9 Este 17 Este 0 -- -- 36
2019-07-20 10:00:00 27.9 11 Este 17 Este 0 -- -- 40
2019-07-20 09:00:00 26 8 Nordeste 12 Nordeste 0 -- -- 45
2019-07-20 08:00:00 23.8 4 Nordeste 9 Nordeste 0 -- -- 50
2019-07-20 07:00:00 23 4 Nordeste 12 Este 0 -- -- 50
2019-07-20 06:00:00 24.4 5 Nordeste 18 Este 0 -- -- 46
2019-07-20 05:00:00 25.8 3 Norte 16 Sudeste 0 -- -- 42
2019-07-20 04:00:00 26.4 3 Oeste 10 Nordeste 0 -- -- 36
2019-07-20 03:00:00 27.3 0 Calma 18 Sudoeste 0 -- -- 29
2019-07-20 02:00:00 28.7 6 Sudoeste 18 Sudeste 0 -- -- 25
2019-07-20 01:00:00 29.6 8 Oeste 22 Sur 0 -- -- 23
2019-07-20 00:00:00 31.4 13 Sur 35 Sudeste 0 -- -- 22
2019-07-19 23:00:00 32.7 15 Sudeste 29 Sudeste 0 -- -- 23
2019-07-19 22:00:00 33.6 0 Calma 3 Oeste 0 -- -- 27
2019-07-19 21:00:00 36.3 2 Sudoeste 10 Oeste 0 -- -- 22
2019-07-19 20:00:00 36.5 5 Oeste 15 Sudoeste 0 -- -- 22
2019-07-19 19:00:00 37.3 11 Sudoeste 18 Sudoeste 0 -- -- 21
2019-07-19 18:00:00 36.6 11 Sudoeste 25 Sudoeste 0 -- -- 21
2019-07-19 17:00:00 37.9 13 Sudoeste 32 Sudoeste 0 -- -- 20
2019-07-19 16:00:00 37.6 18 Sudoeste 30 Oeste 0 -- -- 21
2019-07-19 15:00:00 36.6 12 Oeste 24 Sudoeste 0 -- -- 23
2019-07-19 14:00:00 35.4 8 Sur 24 Sur 0 -- -- 26
2019-07-19 13:00:00 33.8 9 Sur 17 Sur 0 -- -- 30
2019-07-19 12:00:00 31.6 6 Sudeste 16 Sudeste 0 -- -- 33
2019-07-19 11:00:00 29.6 3 Este 13 Este 0 -- -- 38
2019-07-19 10:00:00 27.7 5 Nordeste 10 Nordeste 0 -- -- 42
2019-07-19 09:00:00 25.2 3 Nordeste 11 Nordeste 0 -- -- 45
2019-07-19 08:00:00 22.9 7 Nordeste 13 Nordeste 0 -- -- 47
2019-07-19 07:00:00 22.7 8 Nordeste 14 Nordeste 0 -- -- 47
2019-07-19 06:00:00 23.3 5 Nordeste 14 Norte 0 -- -- 47
2019-07-19 05:00:00 23.9 8 Nordeste 17 Norte 0 -- -- 46
2019-07-19 04:00:00 24.9 10 Norte 21 Nordeste 0 -- -- 45
2019-07-19 03:00:00 26 10 Nordeste 29 Norte 0 -- -- 44
2019-07-19 02:00:00 27.1 18 Nordeste 29 Norte 0 -- -- 42
2019-07-19 01:00:00 28.6 18 Norte 33 Norte 0 -- -- 39
2019-07-19 00:00:00 30.5 11 Nordeste 20 Nordeste 0 -- -- 34